Time;durP1;ratioP1;P1;durP2;ratioP2;P2;SDS_P1;SDS_P2;PMS_P1;PMS_P2;Temp;Humidity;BMP_temperature;BMP_pressure;BME280_temperature;BME280_humidity;BME280_pressure;Samples;Min_cycle;Max_cycle;Signal;HPM_P1;HPM_P2
2022/03/26 00:00:55;;;;;;;58.43;33.87;;;6.20;1.00;;;;;;4974272;28;20462;-56
2022/03/26 00:03:25;;;;;;;44.47;33.73;;;6.20;1.00;;;;;;4979817;28;20537;-58
2022/03/26 00:05:54;;;;;;;47.90;33.20;;;6.10;1.00;;;;;;4979185;28;20540;-58
2022/03/26 00:08:28;;;;;;;46.20;30.43;;;6.10;1.00;;;;;;4978034;28;20458;-56
2022/03/26 00:10:55;;;;;;;47.03;32.23;;;6.10;1.00;;;;;;4978501;28;20926;-58
2022/03/26 00:13:27;;;;;;;48.40;32.83;;;6.00;1.00;;;;;;4977847;28;20475;-58
2022/03/26 00:15:54;;;;;;;44.30;30.80;;;6.00;1.00;;;;;;4978297;28;20481;-58
2022/03/26 00:18:23;;;;;;;48.53;32.10;;;6.00;1.00;;;;;;4978260;28;20519;-57
2022/03/26 00:20:50;;;;;;;46.30;31.90;;;5.90;1.00;;;;;;4979217;28;20732;-57
2022/03/26 00:23:34;;;;;;;44.20;31.20;;;5.80;1.00;;;;;;4979246;28;20821;-58
2022/03/26 00:26:04;;;;;;;45.73;31.10;;;5.90;1.00;;;;;;4978822;28;20494;-58
2022/03/26 00:28:36;;;;;;;53.30;33.30;;;5.80;1.00;;;;;;4979157;28;20450;-58
2022/03/26 00:31:08;;;;;;;51.87;34.40;;;5.80;1.00;;;;;;4979340;28;20596;-58
2022/03/26 00:33:43;;;;;;;52.47;32.30;;;5.80;1.00;;;;;;4979147;28;20814;-58
2022/03/26 00:36:10;;;;;;;47.07;29.40;;;5.70;1.00;;;;;;4978487;28;20882;-57
2022/03/26 00:38:40;;;;;;;49.60;31.00;;;5.80;1.00;;;;;;4978335;28;20476;-57
2022/03/26 00:41:10;;;;;;;48.67;31.80;;;5.80;1.00;;;;;;4979045;28;20557;-58
2022/03/26 00:43:40;;;;;;;48.43;31.40;;;5.80;1.00;;;;;;4979008;28;20465;-58
2022/03/26 00:46:07;;;;;;;52.73;33.57;;;5.80;1.00;;;;;;4977467;28;20949;-57
2022/03/26 00:48:34;;;;;;;45.93;31.70;;;5.80;1.00;;;;;;4978610;28;20830;-57
2022/03/26 00:51:01;;;;;;;53.47;30.30;;;5.80;1.00;;;;;;4978309;28;20544;-56
2022/03/26 00:53:28;;;;;;;50.23;32.70;;;5.70;1.00;;;;;;4978234;28;20475;-56
2022/03/26 00:55:58;;;;;;;50.80;34.70;;;5.70;1.00;;;;;;4977909;28;20466;-57
2022/03/26 00:58:27;;;;;;;49.10;32.73;;;5.60;1.00;;;;;;4978085;28;20476;-58
2022/03/26 01:01:05;;;;;;;46.87;32.60;;;5.60;1.00;;;;;;4978556;28;20895;-58
2022/03/26 01:03:32;;;;;;;47.20;33.17;;;5.50;1.00;;;;;;4978640;28;20465;-58
2022/03/26 01:05:59;;;;;;;48.97;31.30;;;5.50;1.00;;;;;;4978107;28;20462;-57
2022/03/26 01:08:26;;;;;;;48.97;33.67;;;5.50;1.00;;;;;;4978418;28;20467;-58
2022/03/26 01:10:53;;;;;;;49.70;31.83;;;5.50;1.00;;;;;;4978447;28;20501;-58
2022/03/26 01:13:21;;;;;;;53.33;31.40;;;5.60;1.00;;;;;;4977870;28;20469;-58
2022/03/26 01:15:51;;;;;;;52.80;29.80;;;5.50;1.00;;;;;;4978583;28;20746;-58
2022/03/26 01:18:29;;;;;;;52.07;35.63;;;5.50;1.00;;;;;;4978027;28;20536;-57
2022/03/26 01:21:01;;;;;;;51.07;32.23;;;5.60;1.00;;;;;;4978810;28;20968;-58
2022/03/26 01:23:28;;;;;;;60.87;34.23;;;5.50;1.00;;;;;;4978798;28;20504;-57
2022/03/26 01:25:55;;;;;;;49.83;33.27;;;5.40;1.00;;;;;;4978514;28;20913;-58
2022/03/26 01:28:22;;;;;;;57.80;36.53;;;5.40;1.00;;;;;;4977864;28;20470;-58
2022/03/26 01:30:52;;;;;;;50.20;33.87;;;5.30;1.00;;;;;;4978631;28;20497;-56
2022/03/26 01:33:23;;;;;;;43.83;31.30;;;5.30;1.00;;;;;;4978518;28;20469;-58
2022/03/26 01:35:50;;;;;;;48.70;32.70;;;5.30;1.00;;;;;;4978299;28;20784;-58
2022/03/26 01:38:18;;;;;;;45.10;30.70;;;5.30;1.00;;;;;;4977596;28;20469;-57
2022/03/26 01:40:50;;;;;;;42.87;29.10;;;5.20;1.00;;;;;;4978694;28;20536;-58
2022/03/26 01:43:17;;;;;;;52.97;29.77;;;5.20;1.00;;;;;;4978261;28;20506;-58
2022/03/26 01:45:45;;;;;;;44.63;32.17;;;5.20;1.00;;;;;;4978227;28;20468;-57
2022/03/26 01:48:17;;;;;;;51.27;34.57;;;5.00;1.00;;;;;;4977380;28;20492;-57
2022/03/26 01:50:51;;;;;;;54.40;33.20;;;5.00;1.00;;;;;;4981385;28;20497;-56
2022/03/26 01:53:18;;;;;;;52.43;32.70;;;5.00;1.00;;;;;;4981841;28;20466;-57
2022/03/26 01:55:50;;;;;;;52.90;34.93;;;4.90;1.00;;;;;;4980933;28;20461;-58
2022/03/26 01:58:19;;;;;;;52.80;36.63;;;4.90;1.00;;;;;;4981832;28;20461;-58
2022/03/26 02:00:51;;;;;;;53.17;33.83;;;4.90;1.00;;;;;;4981939;28;20469;-57
2022/03/26 02:03:22;;;;;;;50.20;32.30;;;4.90;1.00;;;;;;4981297;28;20837;-57
2022/03/26 02:05:57;;;;;;;48.57;30.40;;;4.80;1.00;;;;;;4981816;28;20468;-57
2022/03/26 02:08:24;;;;;;;43.33;30.50;;;4.80;1.00;;;;;;4980942;28;20464;-57
2022/03/26 02:10:52;;;;;;;46.17;31.30;;;4.60;1.00;;;;;;4981965;28;20847;-58
2022/03/26 02:13:19;;;;;;;49.60;31.67;;;4.50;1.00;;;;;;4981699;28;20473;-57
2022/03/26 02:15:51;;;;;;;48.43;34.37;;;4.50;1.00;;;;;;4981860;28;20465;-58
2022/03/26 02:18:22;;;;;;;48.70;32.27;;;4.50;1.00;;;;;;4982056;28;20797;-57
2022/03/26 02:20:53;;;;;;;49.20;31.53;;;4.50;1.00;;;;;;4980797;28;20466;-58
2022/03/26 02:23:21;;;;;;;53.17;34.17;;;4.50;1.00;;;;;;4981015;28;20461;-58
2022/03/26 02:25:52;;;;;;;54.97;34.57;;;4.50;1.00;;;;;;4981436;28;20965;-56
2022/03/26 02:28:21;;;;;;;44.93;32.50;;;4.50;1.00;;;;;;4981903;28;20465;-58
2022/03/26 02:30:54;;;;;;;54.57;33.63;;;4.50;1.00;;;;;;4980946;28;20496;-57
2022/03/26 02:33:27;;;;;;;50.83;31.50;;;4.40;1.00;;;;;;4981088;28;20524;-58
2022/03/26 02:36:03;;;;;;;48.57;32.27;;;4.40;1.00;;;;;;4981202;28;20524;-57
2022/03/26 02:38:31;;;;;;;50.87;33.37;;;4.50;1.00;;;;;;4981712;28;20500;-57
2022/03/26 02:41:00;;;;;;;45.87;30.60;;;4.50;1.00;;;;;;4981302;28;20524;-57
2022/03/26 02:43:32;;;;;;;51.67;32.97;;;4.40;1.00;;;;;;4981341;28;20465;-58
2022/03/26 02:46:00;;;;;;;48.43;32.00;;;4.40;1.00;;;;;;4980571;28;20971;-57
2022/03/26 02:48:29;;;;;;;46.70;32.50;;;4.30;1.00;;;;;;4980909;28;20488;-57
2022/03/26 02:50:57;;;;;;;51.30;35.43;;;4.20;1.00;;;;;;4981949;28;20497;-57
2022/03/26 02:53:24;;;;;;;50.10;31.50;;;4.20;1.00;;;;;;4980581;28;20474;-57
2022/03/26 02:55:54;;;;;;;47.97;31.30;;;4.10;1.00;;;;;;4979619;28;20831;-58
2022/03/26 02:58:24;;;;;;;39.97;27.20;;;4.10;1.00;;;;;;4979993;28;20466;-58
2022/03/26 03:00:51;;;;;;;42.50;28.30;;;4.20;1.00;;;;;;4980317;28;20937;-57
2022/03/26 03:03:21;;;;;;;42.00;28.33;;;4.10;1.00;;;;;;4980955;28;20561;-58
2022/03/26 03:05:54;;;;;;;47.97;30.60;;;4.10;1.00;;;;;;4980876;28;20466;-58
2022/03/26 03:08:22;;;;;;;51.43;28.93;;;4.00;1.00;;;;;;4981274;28;20469;-58
2022/03/26 03:10:53;;;;;;;44.77;30.17;;;4.00;1.00;;;;;;4980603;28;20560;-58
2022/03/26 03:13:22;;;;;;;46.17;30.60;;;4.00;1.00;;;;;;4980938;28;20470;-58
2022/03/26 03:15:49;;;;;;;50.83;30.30;;;4.00;1.00;;;;;;4979923;28;20476;-58
2022/03/26 03:18:16;;;;;;;45.63;29.33;;;3.90;1.00;;;;;;4980444;28;20516;-56
2022/03/26 03:20:45;;;;;;;47.60;30.20;;;3.90;1.00;;;;;;4980661;28;20517;-57
2022/03/26 03:23:15;;;;;;;56.17;31.60;;;3.80;3.30;;;;;;4980326;28;20472;-59
2022/03/26 03:25:44;;;;;;;48.40;31.37;;;3.80;10.00;;;;;;4980179;28;20466;-58
2022/03/26 03:28:11;;;;;;;49.10;30.83;;;3.90;26.10;;;;;;4979798;28;20470;-56
2022/03/26 03:30:41;;;;;;;46.77;29.57;;;3.90;9.10;;;;;;4980218;28;20540;-59
2022/03/26 03:33:19;;;;;;;44.27;30.17;;;3.80;1.00;;;;;;4980380;28;20473;-58
2022/03/26 03:35:47;;;;;;;51.50;31.53;;;3.80;1.00;;;;;;4980297;28;20532;-58
2022/03/26 03:38:14;;;;;;;48.30;31.00;;;3.70;1.00;;;;;;4979245;28;20943;-59
2022/03/26 03:40:52;;;;;;;49.93;30.20;;;3.60;1.00;;;;;;4980349;28;20950;-58
2022/03/26 03:43:22;;;;;;;50.23;32.17;;;3.60;1.00;;;;;;4960396;29;20471;-59
2022/03/26 03:45:54;;;;;;;52.40;30.07;;;3.50;22.20;;;;;;4960710;29;20513;-58
2022/03/26 03:48:21;;;;;;;46.80;30.67;;;3.50;71.50;;;;;;4970873;28;20788;-57
2022/03/26 03:50:51;;;;;;;50.10;30.80;;;3.50;91.80;;;;;;4979836;28;20493;-58
2022/03/26 03:53:21;;;;;;;43.23;30.10;;;3.50;67.10;;;;;;4979541;28;20552;-58
2022/03/26 03:55:48;;;;;;;43.90;29.40;;;3.50;90.00;;;;;;4979241;28;20803;-58
2022/03/26 03:58:19;;;;;;;42.70;29.90;;;3.50;90.80;;;;;;4979685;28;20553;-58
2022/03/26 04:00:46;;;;;;;42.90;29.17;;;3.50;88.10;;;;;;4980303;28;20472;-59
2022/03/26 04:03:19;;;;;;;47.63;31.67;;;3.50;74.70;;;;;;4979707;28;20521;-58
2022/03/26 04:05:49;;;;;;;47.10;30.40;;;3.40;37.00;;;;;;4979315;28;20473;-57
2022/03/26 04:08:21;;;;;;;51.23;32.07;;;3.40;24.40;;;;;;4978659;28;20470;-58
2022/03/26 04:10:48;;;;;;;50.43;30.73;;;3.40;44.00;;;;;;4979651;28;20673;-58
2022/03/26 04:13:22;;;;;;;45.97;30.20;;;3.40;99.90;;;;;;4978589;28;20970;-58
2022/03/26 04:15:57;;;;;;;45.97;29.20;;;3.40;99.90;;;;;;4979012;28;20462;-59
2022/03/26 04:18:35;;;;;;;43.60;28.07;;;3.40;99.90;;;;;;4979340;28;20469;-58
2022/03/26 04:21:02;;;;;;;53.17;31.90;;;3.40;99.90;;;;;;4960590;29;20523;-58
2022/03/26 04:23:29;;;;;;;49.47;30.80;;;3.40;91.20;;;;;;4965231;28;20999;-59
2022/03/26 04:25:59;;;;;;;53.57;29.70;;;3.40;91.20;;;;;;4978975;28;20476;-58
2022/03/26 04:28:33;;;;;;;47.70;30.53;;;3.40;99.90;;;;;;4978871;28;20831;-59
2022/03/26 04:31:00;;;;;;;44.07;29.00;;;3.30;99.90;;;;;;4978218;28;20486;-58
2022/03/26 04:33:33;;;;;;;46.27;29.90;;;3.30;99.90;;;;;;4978838;28;20473;-58
2022/03/26 04:36:05;;;;;;;49.73;30.10;;;3.20;99.90;;;;;;4978741;28;20505;-58
2022/03/26 04:38:32;;;;;;;46.57;28.70;;;3.20;99.90;;;;;;4979078;28;20481;-58
2022/03/26 04:40:59;;;;;;;48.10;30.70;;;3.10;99.90;;;;;;4977444;28;20458;-58
2022/03/26 04:43:28;;;;;;;47.60;29.27;;;3.10;99.90;;;;;;4978388;28;20766;-58
2022/03/26 04:46:06;;;;;;;43.10;29.13;;;3.20;99.90;;;;;;4978098;28;20466;-59
2022/03/26 04:48:33;;;;;;;43.80;28.17;;;3.10;99.90;;;;;;4978904;28;20524;-58
2022/03/26 04:51:00;;;;;;;45.70;29.10;;;3.10;99.90;;;;;;4978354;28;20496;-58
2022/03/26 04:53:27;;;;;;;44.77;28.80;;;3.10;99.90;;;;;;4977962;28;20465;-58
2022/03/26 04:55:54;;;;;;;45.27;28.03;;;3.00;99.90;;;;;;4977397;28;20480;-59
2022/03/26 04:58:23;;;;;;;46.87;29.17;;;3.10;99.90;;;;;;4978382;28;20474;-59
2022/03/26 05:00:56;;;;;;;43.40;28.10;;;3.00;99.90;;;;;;4978172;28;20454;-58
2022/03/26 05:03:25;;;;;;;46.80;28.37;;;3.00;99.90;;;;;;4978484;28;20805;-56
2022/03/26 05:05:52;;;;;;;42.47;28.47;;;3.00;99.90;;;;;;4978095;28;20470;-58
2022/03/26 05:08:26;;;;;;;48.60;29.13;;;2.90;99.90;;;;;;4978177;28;20565;-58
2022/03/26 05:11:02;;;;;;;41.60;29.17;;;2.90;99.90;;;;;;4978046;28;20951;-58
2022/03/26 05:13:32;;;;;;;46.07;29.23;;;2.80;99.90;;;;;;4959164;29;20473;-58
2022/03/26 05:16:01;;;;;;;45.23;28.30;;;2.80;99.90;;;;;;4965323;28;20461;-58
2022/03/26 05:18:34;;;;;;;42.47;27.80;;;2.80;99.90;;;;;;4977722;28;20496;-58
2022/03/26 05:21:07;;;;;;;42.70;26.43;;;2.70;99.90;;;;;;4978641;28;20469;-58
2022/03/26 05:23:35;;;;;;;45.90;28.87;;;2.70;99.90;;;;;;4977596;28;20474;-58
2022/03/26 05:26:02;;;;;;;49.30;28.43;;;2.80;99.90;;;;;;4977371;28;20474;-58
2022/03/26 05:28:32;;;;;;;50.53;28.20;;;2.70;99.90;;;;;;4977242;28;20553;-58
2022/03/26 05:30:59;;;;;;;50.40;28.60;;;2.80;99.90;;;;;;4977642;28;20521;-56
2022/03/26 05:33:26;;;;;;;44.30;30.33;;;2.80;99.90;;;;;;4975687;28;20473;-56
2022/03/26 05:35:58;;;;;;;45.60;29.13;;;2.80;99.90;;;;;;4976651;28;20823;-58
2022/03/26 05:38:25;;;;;;;49.07;29.07;;;2.80;99.90;;;;;;4977100;28;20465;-58
2022/03/26 05:40:52;;;;;;;46.00;27.97;;;2.80;99.90;;;;;;4978066;28;20469;-58
2022/03/26 05:43:19;;;;;;;49.47;26.93;;;2.90;99.90;;;;;;4974272;28;20462;-58
2022/03/26 05:45:46;;;;;;;57.03;32.73;;;2.90;99.90;;;;;;4976688;28;20462;-59
2022/03/26 05:48:13;;;;;;;55.60;34.30;;;2.90;99.90;;;;;;4976290;28;20478;-58
2022/03/26 05:50:44;;;;;;;57.73;34.87;;;2.90;99.90;;;;;;4977424;28;20560;-58
2022/03/26 05:53:13;;;;;;;45.57;28.60;;;3.00;99.90;;;;;;4976522;28;20513;-58
2022/03/26 05:55:40;;;;;;;50.10;30.90;;;3.00;99.90;;;;;;4976977;28;20470;-57
2022/03/26 05:58:07;;;;;;;49.50;30.80;;;3.00;99.90;;;;;;4977525;28;20477;-58
2022/03/26 06:00:42;;;;;;;45.13;31.37;;;3.10;99.90;;;;;;4978223;28;20469;-58
2022/03/26 06:03:13;;;;;;;59.80;32.20;;;3.10;99.90;;;;;;4978193;28;20469;-58
2022/03/26 06:05:40;;;;;;;45.83;30.50;;;3.20;99.90;;;;;;4978008;28;20513;-58
2022/03/26 06:08:10;;;;;;;46.20;28.70;;;3.30;99.90;;;;;;4977360;28;20462;-59
2022/03/26 06:10:41;;;;;;;47.73;30.20;;;3.30;99.90;;;;;;4977162;28;20790;-57
2022/03/26 06:13:08;;;;;;;46.33;31.07;;;3.40;99.90;;;;;;4977265;28;20470;-58
2022/03/26 06:15:38;;;;;;;45.17;27.77;;;3.60;99.90;;;;;;4976501;28;20471;-58
2022/03/26 06:18:08;;;;;;;42.07;29.70;;;3.70;99.90;;;;;;4976502;28;20485;-56
2022/03/26 06:20:35;;;;;;;45.23;29.90;;;3.80;99.90;;;;;;4977863;28;20466;-58
2022/03/26 06:23:04;;;;;;;47.97;30.13;;;4.00;99.90;;;;;;4977764;28;20466;-58
2022/03/26 06:25:31;;;;;;;47.70;30.53;;;4.20;99.90;;;;;;4977437;28;20528;-59
2022/03/26 06:28:05;;;;;;;48.80;31.20;;;4.40;99.90;;;;;;4977274;28;20528;-59
2022/03/26 06:30:33;;;;;;;48.97;32.07;;;4.60;99.90;;;;;;4977774;28;20462;-59
2022/03/26 06:33:01;;;;;;;51.13;34.00;;;4.80;99.90;;;;;;4977719;28;20497;-58
2022/03/26 06:35:28;;;;;;;48.93;29.60;;;5.00;60.10;;;;;;4977689;28;20524;-59
2022/03/26 06:38:02;;;;;;;45.97;28.63;;;5.20;19.70;;;;;;4980721;28;20923;-60
2022/03/26 06:40:30;;;;;;;55.73;33.63;;;5.50;1.00;;;;;;4981389;28;20482;-61
2022/03/26 06:43:14;;;;;;;49.33;29.07;;;5.70;1.00;;;;;;4981407;28;20785;-60
2022/03/26 06:45:48;;;;;;;47.80;30.33;;;5.90;1.00;;;;;;4981118;28;20472;-60
2022/03/26 06:48:16;;;;;;;51.90;30.63;;;6.10;1.00;;;;;;4981282;28;20471;-60
2022/03/26 06:50:48;;;;;;;43.13;29.30;;;6.30;1.00;;;;;;4981120;28;20811;-60
2022/03/26 06:53:15;;;;;;;50.30;32.10;;;6.60;1.00;;;;;;4981147;28;20466;-60
2022/03/26 06:55:43;;;;;;;44.40;30.27;;;6.70;1.00;;;;;;4980931;28;20538;-60
2022/03/26 06:58:12;;;;;;;44.63;29.73;;;6.90;1.00;;;;;;4980926;28;20524;-61
2022/03/26 07:00:42;;;;;;;45.37;29.97;;;7.10;1.00;;;;;;4980867;28;20462;-61
2022/03/26 07:03:13;;;;;;;48.33;33.03;;;7.30;1.00;;;;;;4980968;28;20465;-60
2022/03/26 07:05:42;;;;;;;45.63;31.80;;;7.50;1.00;;;;;;4979143;28;20557;-61
2022/03/26 07:08:10;;;;;;;45.50;31.33;;;7.70;1.00;;;;;;4979695;28;20504;-60
2022/03/26 07:10:39;;;;;;;54.83;34.83;;;8.00;1.00;;;;;;4979147;28;20568;-60
2022/03/26 07:13:09;;;;;;;54.00;31.30;;;8.20;1.00;;;;;;4979256;28;20584;-61
2022/03/26 07:15:38;;;;;;;45.27;30.67;;;8.40;99.90;;;;;;4976640;28;20462;-61
2022/03/26 07:18:05;;;;;;;43.40;31.43;;;8.60;99.90;;;;;;4978871;28;20521;-60
2022/03/26 07:20:33;;;;;;;41.83;31.37;;;8.90;99.90;;;;;;4978320;28;20461;-61
2022/03/26 07:23:04;;;;;;;40.77;31.57;;;9.10;99.90;;;;;;4979070;28;20446;-61
2022/03/26 07:25:31;;;;;;;45.20;34.23;;;9.40;99.90;;;;;;4978395;28;20841;-61
2022/03/26 07:27:58;;;;;;;44.40;30.73;;;9.60;99.90;;;;;;4979101;28;20549;-61
2022/03/26 07:30:25;;;;;;;39.37;30.50;;;9.80;99.90;;;;;;4980257;28;20465;-61
2022/03/26 07:32:54;;;;;;;41.40;30.70;;;10.00;99.90;;;;;;4979736;28;20532;-61
2022/03/26 07:35:26;;;;;;;48.30;31.80;;;10.20;99.90;;;;;;4979844;28;20476;-61
2022/03/26 07:37:53;;;;;;;48.03;31.60;;;10.50;99.90;;;;;;4979739;28;20470;-61
2022/03/26 07:40:21;;;;;;;50.23;30.30;;;10.80;99.90;;;;;;4980100;28;20764;-61
2022/03/26 07:42:54;;;;;;;44.57;31.67;;;11.10;99.90;;;;;;4979702;28;20497;-61
2022/03/26 07:45:24;;;;;;;43.10;32.97;;;11.30;99.90;;;;;;4978147;28;20528;-61
2022/03/26 07:47:56;;;;;;;42.93;32.90;;;11.50;99.90;;;;;;4975992;28;20825;-61
2022/03/26 07:50:25;;;;;;;45.10;31.23;;;11.60;99.90;;;;;;4978602;28;20553;-61
2022/03/26 07:52:55;;;;;;;43.50;32.83;;;11.90;99.90;;;;;;4979988;28;21015;-61
2022/03/26 07:55:23;;;;;;;42.27;31.60;;;12.20;99.90;;;;;;4979238;28;20501;-61
2022/03/26 07:57:51;;;;;;;40.90;33.00;;;12.20;99.90;;;;;;4977074;28;20903;-60
2022/03/26 08:00:19;;;;;;;45.70;32.20;;;12.50;99.90;;;;;;4979031;28;20464;-60
2022/03/26 08:02:46;;;;;;;41.50;31.30;;;13.00;99.90;;;;;;4980597;28;20465;-61
2022/03/26 08:05:19;;;;;;;47.77;34.33;;;13.30;99.90;;;;;;4980276;28;20474;-60
2022/03/26 08:07:46;;;;;;;45.13;30.53;;;13.70;99.90;;;;;;4979921;28;20474;-60
2022/03/26 08:10:17;;;;;;;38.70;30.67;;;14.10;99.90;;;;;;4980138;28;20505;-60
2022/03/26 08:12:53;;;;;;;43.50;31.40;;;14.20;99.90;;;;;;4980718;28;20497;-60
2022/03/26 08:15:22;;;;;;;40.73;34.27;;;14.50;99.90;;;;;;4980882;28;20462;-60
2022/03/26 08:17:49;;;;;;;41.67;33.87;;;14.60;99.90;;;;;;4982244;28;20470;-60
2022/03/26 08:20:21;;;;;;;40.00;33.20;;;14.90;99.90;;;;;;4981505;28;20470;-61
2022/03/26 08:22:48;;;;;;;41.57;32.50;;;14.70;99.90;;;;;;4981191;28;20907;-60
2022/03/26 08:26:19;;;;;;;44.80;32.20;;;15.10;99.90;;;;;;4981086;28;20480;-60
2022/03/26 08:28:12;;;;;;;44.10;33.23;;;15.50;99.90;;;;;;4980585;28;20504;-60
2022/03/26 08:30:42;;;;;;;49.03;34.40;;;15.60;99.90;;;;;;4980838;28;20465;-60
2022/03/26 08:33:09;;;;;;;38.87;32.13;;;15.80;99.90;;;;;;4981940;28;20552;-61
2022/03/26 08:35:41;;;;;;;41.30;33.30;;;15.50;99.90;;;;;;4979965;28;20458;-61
2022/03/26 08:38:11;;;;;;;35.77;30.20;;;16.10;99.90;;;;;;4980467;28;20470;-61
2022/03/26 08:40:38;;;;;;;35.17;28.77;;;16.60;99.90;;;;;;4979855;28;20774;-60
2022/03/26 08:43:07;;;;;;;49.53;31.20;;;16.90;99.90;;;;;;4979919;28;20473;-60
2022/03/26 08:45:39;;;;;;;40.90;25.40;;;17.20;99.90;;;;;;4981038;28;20469;-60
2022/03/26 08:48:09;;;;;;;36.77;27.87;;;17.50;99.90;;;;;;4979701;28;20520;-60
2022/03/26 08:50:40;;;;;;;36.57;29.40;;;17.80;99.90;;;;;;4979806;28;20466;-60
2022/03/26 08:53:11;;;;;;;29.60;26.00;;;18.00;99.90;;;;;;4980632;28;20497;-60
2022/03/26 08:55:41;;;;;;;32.53;26.40;;;18.20;99.90;;;;;;4980435;28;20470;-59
2022/03/26 08:58:09;;;;;;;35.30;26.57;;;18.20;99.90;;;;;;4979936;28;20558;-61
2022/03/26 09:00:38;;;;;;;32.70;25.90;;;18.30;99.90;;;;;;4979749;28;20470;-61
2022/03/26 09:03:06;;;;;;;38.07;27.63;;;18.40;99.90;;;;;;4980505;28;20479;-61
2022/03/26 09:05:36;;;;;;;27.17;23.07;;;18.70;99.90;;;;;;4979843;28;20465;-61
2022/03/26 09:08:09;;;;;;;28.70;24.37;;;18.40;99.90;;;;;;4979792;28;20458;-60
2022/03/26 09:10:38;;;;;;;26.37;23.13;;;18.90;99.90;;;;;;4978999;28;20540;-61
2022/03/26 09:13:15;;;;;;;26.57;22.20;;;18.80;99.90;;;;;;4976237;28;20512;-60
2022/03/26 09:15:49;;;;;;;25.33;22.50;;;19.00;99.90;;;;;;4979611;28;20805;-60
2022/03/26 09:18:18;;;;;;;23.60;20.37;;;19.30;99.90;;;;;;4979297;28;20469;-61
2022/03/26 09:20:46;;;;;;;26.60;21.17;;;19.40;99.90;;;;;;4978650;28;20817;-61
2022/03/26 09:23:14;;;;;;;23.70;21.00;;;19.50;99.90;;;;;;4978709;28;21180;-61
2022/03/26 09:25:51;;;;;;;23.67;19.93;;;19.40;99.90;;;;;;4978341;28;20470;-60
2022/03/26 09:28:20;;;;;;;22.33;18.57;;;19.20;99.90;;;;;;4977731;28;20774;-62
2022/03/26 09:30:50;;;;;;;35.27;21.40;;;19.30;99.90;;;;;;4978425;28;20476;-61
2022/03/26 09:33:22;;;;;;;29.77;20.53;;;19.60;99.90;;;;;;4978656;28;20604;-61
2022/03/26 09:35:50;;;;;;;26.17;20.73;;;19.60;99.90;;;;;;4978224;28;20889;-62
2022/03/26 09:38:26;;;;;;;28.00;21.90;;;19.30;99.90;;;;;;4978128;28;20465;-60
2022/03/26 09:41:00;;;;;;;29.80;22.10;;;19.60;99.90;;;;;;4978173;28;20523;-60
2022/03/26 09:43:28;;;;;;;26.20;22.93;;;19.80;99.90;;;;;;4978349;28;20553;-61
2022/03/26 09:45:57;;;;;;;27.53;23.03;;;20.10;99.90;;;;;;4978156;28;20564;-61
2022/03/26 09:48:26;;;;;;;29.73;23.67;;;20.00;99.90;;;;;;4978179;28;20476;-62
2022/03/26 09:51:01;;;;;;;30.20;24.23;;;19.90;99.90;;;;;;4978371;28;20953;-61
2022/03/26 09:53:28;;;;;;;29.10;24.77;;;20.00;99.90;;;;;;4977723;28;20555;-60
2022/03/26 09:55:59;;;;;;;30.40;26.13;;;20.20;99.90;;;;;;4978142;28;20580;-62
2022/03/26 09:58:26;;;;;;;29.53;24.63;;;20.30;99.90;;;;;;4977638;28;20473;-61
2022/03/26 10:00:54;;;;;;;31.20;25.37;;;20.10;99.90;;;;;;4977857;28;20462;-62
2022/03/26 10:03:21;;;;;;;32.33;26.63;;;18.80;99.90;;;;;;4977770;28;20565;-62
2022/03/26 10:06:07;;;;;;;33.33;27.93;;;19.00;99.90;;;;;;4977610;28;20760;-60
2022/03/26 10:08:36;;;;;;;32.53;25.67;;;18.70;99.90;;;;;;4977999;28;20509;-61
2022/03/26 10:11:04;;;;;;;31.67;23.20;;;19.30;99.90;;;;;;4978048;28;20965;-62
2022/03/26 10:13:38;;;;;;;28.10;23.80;;;19.40;99.90;;;;;;4979180;28;20556;-62
2022/03/26 10:16:07;;;;;;;28.57;24.23;;;19.50;99.90;;;;;;4981038;28;20462;-62
2022/03/26 10:18:39;;;;;;;29.70;23.50;;;19.70;99.90;;;;;;4982154;28;20461;-63
2022/03/26 10:21:14;;;;;;;29.17;21.73;;;19.20;99.90;;;;;;4982648;28;20516;-61
2022/03/26 10:23:44;;;;;;;28.00;23.30;;;19.70;99.90;;;;;;4982428;28;20465;-61
2022/03/26 10:26:14;;;;;;;27.67;22.47;;;20.20;99.90;;;;;;4982415;28;20528;-62
2022/03/26 10:28:42;;;;;;;24.60;18.07;;;20.10;99.90;;;;;;4981654;28;20800;-62
2022/03/26 10:34:09;;;;;;;24.23;21.27;;;19.70;99.90;;;;;;4978912;28;20484;-60
2022/03/26 10:36:41;;;;;;;18.07;16.20;;;19.10;99.90;;;;;;4981578;28;20454;-62
2022/03/26 10:39:20;;;;;;;23.90;18.00;;;19.90;99.90;;;;;;4981588;28;20461;-61
2022/03/26 10:41:49;;;;;;;21.20;18.63;;;20.00;99.90;;;;;;4979562;28;20462;-61
2022/03/26 10:44:24;;;;;;;19.13;17.13;;;20.80;99.90;;;;;;4981169;28;20890;-61
2022/03/26 10:46:56;;;;;;;27.43;23.27;;;20.80;99.90;;;;;;4981005;28;20461;-61
2022/03/26 10:49:30;;;;;;;27.50;24.37;;;20.80;99.90;;;;;;4978854;28;20462;-62
2022/03/26 10:52:06;;;;;;;27.37;22.30;;;20.90;99.90;;;;;;4980375;28;20493;-62
2022/03/26 10:54:37;;;;;;;30.90;23.17;;;20.80;99.90;;;;;;4980714;28;20462;-61
2022/03/26 10:57:11;;;;;;;28.07;22.83;;;20.90;99.90;;;;;;4980083;28;21005;-60
2022/03/26 10:59:47;;;;;;;25.37;22.77;;;21.10;99.90;;;;;;4977473;28;20512;-61
2022/03/26 11:02:14;;;;;;;27.07;22.77;;;21.10;99.90;;;;;;4980063;28;20503;-61
2022/03/26 11:04:42;;;;;;;26.43;22.43;;;21.20;99.90;;;;;;4980084;28;20462;-62
2022/03/26 11:07:11;;;;;;;26.37;20.77;;;21.20;99.90;;;;;;4979977;28;20518;-61
2022/03/26 11:09:41;;;;;;;24.50;21.90;;;21.00;99.90;;;;;;4979609;28;20490;-60
2022/03/26 11:12:10;;;;;;;26.53;21.20;;;21.20;99.90;;;;;;4977234;28;20467;-61
2022/03/26 11:14:41;;;;;;;23.80;18.73;;;21.10;99.90;;;;;;4980437;28;20552;-61
2022/03/26 11:17:26;;;;;;;22.80;17.63;;;20.90;99.90;;;;;;4978944;28;20454;-61
2022/03/26 11:20:18;;;;;;;19.10;17.10;;;21.40;99.90;;;;;;4980700;28;20557;-61
2022/03/26 11:23:09;;;;;;;17.50;15.70;;;21.40;99.90;;;;;;4978370;28;20833;-61
2022/03/26 11:25:49;;;;;;;16.70;15.00;;;21.20;99.90;;;;;;4981913;28;20500;-62
2022/03/26 11:28:47;;;;;;;19.03;14.87;;;20.70;99.90;;;;;;4979495;28;20921;-61
2022/03/26 11:31:23;;;;;;;22.13;16.83;;;21.20;99.90;;;;;;4965114;28;20940;-61
2022/03/26 11:33:50;;;;;;;15.93;14.17;;;21.60;99.90;;;;;;4973476;28;20496;-61
2022/03/26 11:36:19;;;;;;;13.90;12.50;;;21.40;99.90;;;;;;4983766;28;20911;-62
2022/03/26 11:38:57;;;;;;;15.67;14.07;;;21.20;99.90;;;;;;4977551;28;20886;-61
2022/03/26 11:41:51;;;;;;;15.47;13.87;;;20.80;99.90;;;;;;4977910;28;20466;-61
2022/03/26 11:44:21;;;;;;;14.27;12.00;;;20.60;99.90;;;;;;4978991;28;20521;-62
2022/03/26 11:52:25;;;;;;;13.97;12.67;;;22.10;99.90;;;;;;4984592;28;20766;-60
2022/03/26 11:55:01;;;;;;;16.03;14.53;;;22.20;99.90;;;;;;4980948;28;20466;-60
2022/03/26 11:57:30;;;;;;;16.87;14.83;;;22.30;99.90;;;;;;4980371;28;20556;-61
2022/03/26 12:00:00;;;;;;;17.20;13.63;;;22.30;99.90;;;;;;4979613;28;20950;-61
2022/03/26 12:02:28;;;;;;;11.87;10.53;;;22.50;99.90;;;;;;4959833;29;20469;-61
2022/03/26 12:06:35;;;;;;;10.83;9.87;;;22.60;99.90;;;;;;4959659;29;20815;-61
2022/03/26 12:07:50;;;;;;;10.87;9.87;;;22.70;99.90;;;;;;4976359;28;20468;-61
2022/03/26 12:10:36;;;;;;;10.40;9.30;;;22.90;99.90;;;;;;4978578;28;20498;-61
2022/03/26 12:13:05;;;;;;;10.03;9.03;;;22.50;99.90;;;;;;4979758;28;20501;-61
2022/03/26 12:15:34;;;;;;;7.97;7.27;;;22.10;99.90;;;;;;4979084;28;20903;-61
2022/03/26 12:18:17;;;;;;;8.63;7.83;;;21.90;99.90;;;;;;4979872;28;20926;-61
2022/03/26 12:20:47;;;;;;;9.97;9.07;;;21.80;99.90;;;;;;4978620;28;20532;-61
2022/03/26 12:23:16;;;;;;;8.97;8.17;;;21.90;99.90;;;;;;4980167;28;20458;-61
2022/03/26 12:25:49;;;;;;;10.50;9.40;;;22.30;99.90;;;;;;4987114;28;20801;-61
2022/03/26 12:28:20;;;;;;;10.10;9.20;;;22.30;99.90;;;;;;4986167;28;20549;-61
2022/03/26 12:30:49;;;;;;;10.50;8.83;;;22.10;99.90;;;;;;4979688;28;20536;-61
2022/03/26 12:33:16;;;;;;;10.80;9.77;;;21.90;99.90;;;;;;4979523;28;20501;-61
2022/03/26 12:35:47;;;;;;;11.67;9.30;;;22.10;99.90;;;;;;4979774;28;20528;-61
2022/03/26 12:38:21;;;;;;;10.67;9.47;;;21.90;99.90;;;;;;4989909;28;20528;-61
2022/03/26 12:40:57;;;;;;;11.53;9.70;;;22.00;99.90;;;;;;4979227;28;20474;-61
2022/03/26 12:43:26;;;;;;;9.70;8.90;;;21.10;99.90;;;;;;4979055;28;20461;-61
2022/03/26 12:45:59;;;;;;;10.00;9.10;;;21.30;99.90;;;;;;4979222;28;20466;-61
2022/03/26 12:48:30;;;;;;;11.07;10.07;;;22.00;99.90;;;;;;4979345;28;20887;-61
2022/03/26 12:51:07;;;;;;;10.40;9.40;;;22.10;99.90;;;;;;4979022;28;20957;-61
2022/03/26 12:53:40;;;;;;;8.73;7.90;;;22.00;99.90;;;;;;4978370;28;20801;-61
2022/03/26 12:56:16;;;;;;;8.80;7.93;;;22.10;99.90;;;;;;4977738;28;20458;-61
2022/03/26 12:59:00;;;;;;;9.17;8.30;;;21.00;99.90;;;;;;4978412;28;20773;-61
2022/03/26 13:01:27;;;;;;;8.60;7.60;;;20.90;99.90;;;;;;4977978;28;20466;-61
2022/03/26 13:03:55;;;;;;;8.90;7.00;;;21.60;99.90;;;;;;4978171;28;20529;-61